sensor_id;sensor_type;location;lat;lon;timestamp;temperature;humidity
19164;DHT22;9714;51.208;4.242;2023-02-15T00:01:04;6.10;99.90
19164;DHT22;9714;51.208;4.242;2023-02-15T00:04:11;6.10;99.90
19164;DHT22;9714;51.208;4.242;2023-02-15T00:07:08;6.30;99.90
19164;DHT22;9714;51.208;4.242;2023-02-15T00:13:20;6.20;99.90
19164;DHT22;9714;51.208;4.242;2023-02-15T00:15:51;6.40;99.90
19164;DHT22;9714;51.208;4.242;2023-02-15T00:18:19;6.30;99.90
19164;DHT22;9714;51.208;4.242;2023-02-15T00:20:47;6.20;99.90
19164;DHT22;9714;51.208;4.242;2023-02-15T00:23:21;6.10;99.90
19164;DHT22;9714;51.208;4.242;2023-02-15T00:25:48;6.30;99.90
19164;DHT22;9714;51.208;4.242;2023-02-15T00:28:15;6.10;99.90
19164;DHT22;9714;51.208;4.242;2023-02-15T00:30:43;6.00;99.90
19164;DHT22;9714;51.208;4.242;2023-02-15T00:33:10;6.00;99.90
19164;DHT22;9714;51.208;4.242;2023-02-15T00:35:41;6.00;99.90
19164;DHT22;9714;51.208;4.242;2023-02-15T00:38:15;6.10;99.90
19164;DHT22;9714;51.208;4.242;2023-02-15T00:40:44;6.10;99.90
19164;DHT22;9714;51.208;4.242;2023-02-15T00:43:19;6.10;99.90
19164;DHT22;9714;51.208;4.242;2023-02-15T00:45:46;6.10;99.90
19164;DHT22;9714;51.208;4.242;2023-02-15T00:48:14;6.00;99.90
19164;DHT22;9714;51.208;4.242;2023-02-15T00:50:49;5.80;99.90
19164;DHT22;9714;51.208;4.242;2023-02-15T00:53:19;5.70;99.90
19164;DHT22;9714;51.208;4.242;2023-02-15T00:55:46;5.50;99.90
19164;DHT22;9714;51.208;4.242;2023-02-15T00:58:14;5.50;99.90
19164;DHT22;9714;51.208;4.242;2023-02-15T01:00:44;5.70;99.90
19164;DHT22;9714;51.208;4.242;2023-02-15T01:03:15;5.70;99.90
19164;DHT22;9714;51.208;4.242;2023-02-15T01:05:43;5.60;99.90
19164;DHT22;9714;51.208;4.242;2023-02-15T01:08:11;5.50;99.90
19164;DHT22;9714;51.208;4.242;2023-02-15T01:10:38;5.50;99.90
19164;DHT22;9714;51.208;4.242;2023-02-15T01:13:06;5.50;99.90
19164;DHT22;9714;51.208;4.242;2023-02-15T01:15:35;5.50;99.90
19164;DHT22;9714;51.208;4.242;2023-02-15T01:18:04;5.40;99.90
19164;DHT22;9714;51.208;4.242;2023-02-15T01:20:36;5.30;99.90
19164;DHT22;9714;51.208;4.242;2023-02-15T01:23:17;5.30;99.90
19164;DHT22;9714;51.208;4.242;2023-02-15T01:25:45;5.20;99.90
19164;DHT22;9714;51.208;4.242;2023-02-15T01:28:12;5.10;99.90
19164;DHT22;9714;51.208;4.242;2023-02-15T01:30:41;5.10;99.90
19164;DHT22;9714;51.208;4.242;2023-02-15T01:33:09;5.10;99.90
19164;DHT22;9714;51.208;4.242;2023-02-15T01:35:43;5.20;99.90
19164;DHT22;9714;51.208;4.242;2023-02-15T01:38:11;5.30;99.90
19164;DHT22;9714;51.208;4.242;2023-02-15T01:40:39;5.40;99.90
19164;DHT22;9714;51.208;4.242;2023-02-15T01:43:09;5.40;99.90
19164;DHT22;9714;51.208;4.242;2023-02-15T01:45:38;5.40;99.90
19164;DHT22;9714;51.208;4.242;2023-02-15T01:48:15;5.30;99.90
19164;DHT22;9714;51.208;4.242;2023-02-15T01:50:48;5.20;99.90
19164;DHT22;9714;51.208;4.242;2023-02-15T01:53:21;5.00;99.90
19164;DHT22;9714;51.208;4.242;2023-02-15T01:55:53;4.90;99.90
19164;DHT22;9714;51.208;4.242;2023-02-15T01:58:23;4.90;99.90
19164;DHT22;9714;51.208;4.242;2023-02-15T02:00:53;5.00;99.90
19164;DHT22;9714;51.208;4.242;2023-02-15T02:03:27;5.00;99.90
19164;DHT22;9714;51.208;4.242;2023-02-15T02:05:57;5.10;99.90
19164;DHT22;9714;51.208;4.242;2023-02-15T02:08:25;5.00;99.90
19164;DHT22;9714;51.208;4.242;2023-02-15T02:10:53;5.10;99.90
19164;DHT22;9714;51.208;4.242;2023-02-15T02:13:20;5.10;99.90
19164;DHT22;9714;51.208;4.242;2023-02-15T02:15:55;5.00;99.90
19164;DHT22;9714;51.208;4.242;2023-02-15T02:18:35;5.10;99.90
19164;DHT22;9714;51.208;4.242;2023-02-15T02:24:32;5.20;99.90
19164;DHT22;9714;51.208;4.242;2023-02-15T02:27:26;5.00;99.90
19164;DHT22;9714;51.208;4.242;2023-02-15T02:30:28;4.80;99.90
19164;DHT22;9714;51.208;4.242;2023-02-15T02:33:20;4.80;99.90
19164;DHT22;9714;51.208;4.242;2023-02-15T02:35:57;4.80;99.90
19164;DHT22;9714;51.208;4.242;2023-02-15T02:38:35;4.60;99.90
19164;DHT22;9714;51.208;4.242;2023-02-15T02:41:13;4.70;99.90
19164;DHT22;9714;51.208;4.242;2023-02-15T02:43:49;4.80;99.90
19164;DHT22;9714;51.208;4.242;2023-02-15T02:46:24;4.80;99.90
19164;DHT22;9714;51.208;4.242;2023-02-15T02:48:54;4.70;99.90
19164;DHT22;9714;51.208;4.242;2023-02-15T02:51:21;4.70;99.90
19164;DHT22;9714;51.208;4.242;2023-02-15T02:53:52;4.70;99.90
19164;DHT22;9714;51.208;4.242;2023-02-15T02:56:23;4.60;99.90
19164;DHT22;9714;51.208;4.242;2023-02-15T02:58:57;4.50;99.90
19164;DHT22;9714;51.208;4.242;2023-02-15T03:01:31;4.50;99.90
19164;DHT22;9714;51.208;4.242;2023-02-15T03:04:05;4.50;99.90
19164;DHT22;9714;51.208;4.242;2023-02-15T03:06:37;4.30;99.90
19164;DHT22;9714;51.208;4.242;2023-02-15T03:09:09;4.40;99.90
19164;DHT22;9714;51.208;4.242;2023-02-15T03:11:43;4.40;99.90
19164;DHT22;9714;51.208;4.242;2023-02-15T03:14:12;4.50;99.90
19164;DHT22;9714;51.208;4.242;2023-02-15T03:16:40;4.60;99.90
19164;DHT22;9714;51.208;4.242;2023-02-15T03:19:13;4.60;99.90
19164;DHT22;9714;51.208;4.242;2023-02-15T03:21:44;4.50;99.90
19164;DHT22;9714;51.208;4.242;2023-02-15T03:24:19;4.50;99.90
19164;DHT22;9714;51.208;4.242;2023-02-15T03:26:49;4.60;99.90
19164;DHT22;9714;51.208;4.242;2023-02-15T03:29:18;4.60;99.90
19164;DHT22;9714;51.208;4.242;2023-02-15T03:31:51;4.50;99.90
19164;DHT22;9714;51.208;4.242;2023-02-15T03:34:20;4.50;99.90
19164;DHT22;9714;51.208;4.242;2023-02-15T03:36:52;4.40;99.90
19164;DHT22;9714;51.208;4.242;2023-02-15T03:39:26;4.30;99.90
19164;DHT22;9714;51.208;4.242;2023-02-15T03:42:04;4.20;99.90
19164;DHT22;9714;51.208;4.242;2023-02-15T03:44:41;4.30;99.90
19164;DHT22;9714;51.208;4.242;2023-02-15T03:47:13;4.30;99.90
19164;DHT22;9714;51.208;4.242;2023-02-15T03:49:48;4.30;99.90
19164;DHT22;9714;51.208;4.242;2023-02-15T03:52:17;4.30;99.90
19164;DHT22;9714;51.208;4.242;2023-02-15T03:54:45;4.30;99.90
19164;DHT22;9714;51.208;4.242;2023-02-15T03:57:16;4.20;99.90
19164;DHT22;9714;51.208;4.242;2023-02-15T04:00:13;4.20;99.90
19164;DHT22;9714;51.208;4.242;2023-02-15T04:03:20;4.20;99.90
19164;DHT22;9714;51.208;4.242;2023-02-15T04:05:51;4.20;99.90
19164;DHT22;9714;51.208;4.242;2023-02-15T04:08:20;4.20;99.90
19164;DHT22;9714;51.208;4.242;2023-02-15T04:11:07;4.20;99.90
19164;DHT22;9714;51.208;4.242;2023-02-15T04:13:33;4.20;99.90
19164;DHT22;9714;51.208;4.242;2023-02-15T04:16:01;4.30;99.90
19164;DHT22;9714;51.208;4.242;2023-02-15T04:18:30;4.10;99.90
19164;DHT22;9714;51.208;4.242;2023-02-15T04:21:19;4.10;99.90
19164;DHT22;9714;51.208;4.242;2023-02-15T04:24:04;4.10;99.90
19164;DHT22;9714;51.208;4.242;2023-02-15T04:26:51;4.00;99.90
19164;DHT22;9714;51.208;4.242;2023-02-15T04:29:19;4.00;99.90
19164;DHT22;9714;51.208;4.242;2023-02-15T04:31:48;4.10;99.90
19164;DHT22;9714;51.208;4.242;2023-02-15T04:34:15;4.20;99.90
19164;DHT22;9714;51.208;4.242;2023-02-15T04:36:44;4.10;99.90
19164;DHT22;9714;51.208;4.242;2023-02-15T04:39:12;4.20;99.90
19164;DHT22;9714;51.208;4.242;2023-02-15T04:41:40;4.10;99.90
19164;DHT22;9714;51.208;4.242;2023-02-15T04:44:09;4.10;99.90
19164;DHT22;9714;51.208;4.242;2023-02-15T04:46:42;4.20;99.90
19164;DHT22;9714;51.208;4.242;2023-02-15T04:49:11;4.20;99.90
19164;DHT22;9714;51.208;4.242;2023-02-15T04:51:40;4.30;99.90
19164;DHT22;9714;51.208;4.242;2023-02-15T04:54:09;4.20;99.90
19164;DHT22;9714;51.208;4.242;2023-02-15T04:56:37;4.30;99.90
19164;DHT22;9714;51.208;4.242;2023-02-15T04:59:04;4.20;99.90
19164;DHT22;9714;51.208;4.242;2023-02-15T05:01:32;4.10;99.90
19164;DHT22;9714;51.208;4.242;2023-02-15T05:03:59;4.10;99.90
19164;DHT22;9714;51.208;4.242;2023-02-15T05:06:26;4.20;99.90
19164;DHT22;9714;51.208;4.242;2023-02-15T05:08:55;4.10;99.90
19164;DHT22;9714;51.208;4.242;2023-02-15T05:11:26;4.10;99.90
19164;DHT22;9714;51.208;4.242;2023-02-15T05:13:54;4.20;99.90
19164;DHT22;9714;51.208;4.242;2023-02-15T05:16:22;4.10;99.90
19164;DHT22;9714;51.208;4.242;2023-02-15T05:18:49;4.00;99.90
19164;DHT22;9714;51.208;4.242;2023-02-15T05:21:18;4.00;99.90
19164;DHT22;9714;51.208;4.242;2023-02-15T05:23:45;3.90;99.90
19164;DHT22;9714;51.208;4.242;2023-02-15T05:26:17;3.90;99.90
19164;DHT22;9714;51.208;4.242;2023-02-15T05:29:04;3.90;99.90
19164;DHT22;9714;51.208;4.242;2023-02-15T05:31:33;3.90;99.90
19164;DHT22;9714;51.208;4.242;2023-02-15T05:34:00;3.90;99.90
19164;DHT22;9714;51.208;4.242;2023-02-15T05:36:27;4.00;99.90
19164;DHT22;9714;51.208;4.242;2023-02-15T05:38:55;4.00;99.90
19164;DHT22;9714;51.208;4.242;2023-02-15T05:41:22;4.00;99.90
19164;DHT22;9714;51.208;4.242;2023-02-15T05:43:49;4.00;99.90
19164;DHT22;9714;51.208;4.242;2023-02-15T05:46:18;3.90;99.90
19164;DHT22;9714;51.208;4.242;2023-02-15T05:48:46;4.00;99.90
19164;DHT22;9714;51.208;4.242;2023-02-15T05:51:15;4.00;99.90
19164;DHT22;9714;51.208;4.242;2023-02-15T05:53:42;3.90;99.90
19164;DHT22;9714;51.208;4.242;2023-02-15T05:56:11;3.80;99.90
19164;DHT22;9714;51.208;4.242;2023-02-15T05:58:40;3.60;99.90
19164;DHT22;9714;51.208;4.242;2023-02-15T06:01:08;3.50;99.90
19164;DHT22;9714;51.208;4.242;2023-02-15T06:03:37;3.40;99.90
19164;DHT22;9714;51.208;4.242;2023-02-15T06:06:06;3.40;99.90
19164;DHT22;9714;51.208;4.242;2023-02-15T06:08:34;3.40;99.90
19164;DHT22;9714;51.208;4.242;2023-02-15T06:11:02;3.20;99.90
19164;DHT22;9714;51.208;4.242;2023-02-15T06:13:30;3.20;99.90
19164;DHT22;9714;51.208;4.242;2023-02-15T06:15:57;3.10;99.90
19164;DHT22;9714;51.208;4.242;2023-02-15T06:18:26;3.20;99.90
19164;DHT22;9714;51.208;4.242;2023-02-15T06:20:56;3.20;99.90
19164;DHT22;9714;51.208;4.242;2023-02-15T06:23:24;3.10;99.90
19164;DHT22;9714;51.208;4.242;2023-02-15T06:25:51;3.10;99.90
19164;DHT22;9714;51.208;4.242;2023-02-15T06:28:18;3.10;99.90
19164;DHT22;9714;51.208;4.242;2023-02-15T06:30:45;3.00;99.90
19164;DHT22;9714;51.208;4.242;2023-02-15T06:33:12;3.00;99.90
19164;DHT22;9714;51.208;4.242;2023-02-15T06:35:39;3.00;99.90
19164;DHT22;9714;51.208;4.242;2023-02-15T06:38:08;3.00;99.90
19164;DHT22;9714;51.208;4.242;2023-02-15T06:40:36;2.90;99.90
19164;DHT22;9714;51.208;4.242;2023-02-15T06:43:03;2.90;99.90
19164;DHT22;9714;51.208;4.242;2023-02-15T06:45:30;2.90;99.90
19164;DHT22;9714;51.208;4.242;2023-02-15T06:47:57;2.90;99.90
19164;DHT22;9714;51.208;4.242;2023-02-15T06:50:25;3.00;99.90
19164;DHT22;9714;51.208;4.242;2023-02-15T06:52:58;3.00;99.90
19164;DHT22;9714;51.208;4.242;2023-02-15T06:55:29;2.90;99.90
19164;DHT22;9714;51.208;4.242;2023-02-15T06:57:56;2.90;99.90
19164;DHT22;9714;51.208;4.242;2023-02-15T07:00:26;3.00;99.90
19164;DHT22;9714;51.208;4.242;2023-02-15T07:02:59;3.00;99.90
19164;DHT22;9714;51.208;4.242;2023-02-15T07:05:27;3.00;99.90
19164;DHT22;9714;51.208;4.242;2023-02-15T07:07:56;3.10;99.90
19164;DHT22;9714;51.208;4.242;2023-02-15T07:10:24;3.20;99.90
19164;DHT22;9714;51.208;4.242;2023-02-15T07:12:53;3.30;99.90
19164;DHT22;9714;51.208;4.242;2023-02-15T07:15:20;3.50;99.90
19164;DHT22;9714;51.208;4.242;2023-02-15T07:17:48;3.40;99.90
19164;DHT22;9714;51.208;4.242;2023-02-15T07:20:17;3.50;99.90
19164;DHT22;9714;51.208;4.242;2023-02-15T07:22:46;3.50;99.90
19164;DHT22;9714;51.208;4.242;2023-02-15T07:25:32;3.50;99.90
19164;DHT22;9714;51.208;4.242;2023-02-15T07:28:03;3.50;99.90
19164;DHT22;9714;51.208;4.242;2023-02-15T07:30:30;3.70;99.90
19164;DHT22;9714;51.208;4.242;2023-02-15T07:32:58;3.70;99.90
19164;DHT22;9714;51.208;4.242;2023-02-15T07:35:47;3.60;99.90
19164;DHT22;9714;51.208;4.242;2023-02-15T07:38:14;3.50;99.90
19164;DHT22;9714;51.208;4.242;2023-02-15T07:40:41;3.60;99.90
19164;DHT22;9714;51.208;4.242;2023-02-15T07:43:10;3.60;99.90
19164;DHT22;9714;51.208;4.242;2023-02-15T07:45:38;3.50;99.90
19164;DHT22;9714;51.208;4.242;2023-02-15T07:48:05;3.50;99.90
19164;DHT22;9714;51.208;4.242;2023-02-15T07:50:33;3.50;99.90
19164;DHT22;9714;51.208;4.242;2023-02-15T07:53:02;3.50;99.90
19164;DHT22;9714;51.208;4.242;2023-02-15T07:55:29;3.50;99.90
19164;DHT22;9714;51.208;4.242;2023-02-15T07:57:56;3.60;99.90
19164;DHT22;9714;51.208;4.242;2023-02-15T08:00:25;3.60;99.90
19164;DHT22;9714;51.208;4.242;2023-02-15T08:02:53;3.60;99.90
19164;DHT22;9714;51.208;4.242;2023-02-15T08:05:34;3.70;99.90
19164;DHT22;9714;51.208;4.242;2023-02-15T08:08:03;3.80;99.90
19164;DHT22;9714;51.208;4.242;2023-02-15T08:10:31;4.00;99.90
19164;DHT22;9714;51.208;4.242;2023-02-15T08:13:15;4.30;99.90
19164;DHT22;9714;51.208;4.242;2023-02-15T08:15:50;4.30;99.90
19164;DHT22;9714;51.208;4.242;2023-02-15T08:18:23;4.50;99.90
19164;DHT22;9714;51.208;4.242;2023-02-15T08:20:51;4.60;99.90
19164;DHT22;9714;51.208;4.242;2023-02-15T08:23:18;4.70;99.90
19164;DHT22;9714;51.208;4.242;2023-02-15T08:25:48;4.90;99.90
19164;DHT22;9714;51.208;4.242;2023-02-15T08:28:18;5.20;99.90
19164;DHT22;9714;51.208;4.242;2023-02-15T08:30:45;5.50;99.90
19164;DHT22;9714;51.208;4.242;2023-02-15T08:33:15;5.90;99.90
19164;DHT22;9714;51.208;4.242;2023-02-15T08:35:43;6.10;99.90
19164;DHT22;9714;51.208;4.242;2023-02-15T08:38:10;6.00;99.90
19164;DHT22;9714;51.208;4.242;2023-02-15T08:40:37;6.30;99.90
19164;DHT22;9714;51.208;4.242;2023-02-15T08:43:04;6.80;99.90
19164;DHT22;9714;51.208;4.242;2023-02-15T08:45:32;7.40;99.90
19164;DHT22;9714;51.208;4.242;2023-02-15T08:48:00;7.80;99.90
19164;DHT22;9714;51.208;4.242;2023-02-15T08:50:29;8.20;99.90
19164;DHT22;9714;51.208;4.242;2023-02-15T08:52:57;8.00;99.90
19164;DHT22;9714;51.208;4.242;2023-02-15T08:55:24;8.10;99.90
19164;DHT22;9714;51.208;4.242;2023-02-15T08:57:52;8.30;99.90
19164;DHT22;9714;51.208;4.242;2023-02-15T09:00:21;8.00;99.90
19164;DHT22;9714;51.208;4.242;2023-02-15T09:02:49;8.00;99.90
19164;DHT22;9714;51.208;4.242;2023-02-15T09:05:16;8.00;99.90
19164;DHT22;9714;51.208;4.242;2023-02-15T09:07:45;7.80;99.90
19164;DHT22;9714;51.208;4.242;2023-02-15T09:10:12;8.00;99.90
19164;DHT22;9714;51.208;4.242;2023-02-15T09:12:39;8.30;99.90
19164;DHT22;9714;51.208;4.242;2023-02-15T09:15:08;8.90;99.90
19164;DHT22;9714;51.208;4.242;2023-02-15T09:17:35;9.10;99.90
19164;DHT22;9714;51.208;4.242;2023-02-15T09:20:03;9.80;99.90
19164;DHT22;9714;51.208;4.242;2023-02-15T09:22:30;10.80;99.90
19164;DHT22;9714;51.208;4.242;2023-02-15T09:24:58;12.00;99.90
19164;DHT22;9714;51.208;4.242;2023-02-15T09:27:25;13.00;99.90
19164;DHT22;9714;51.208;4.242;2023-02-15T09:29:53;13.20;99.90
19164;DHT22;9714;51.208;4.242;2023-02-15T09:32:20;13.60;99.90
19164;DHT22;9714;51.208;4.242;2023-02-15T09:34:47;14.00;99.90
19164;DHT22;9714;51.208;4.242;2023-02-15T09:37:14;14.40;99.90
19164;DHT22;9714;51.208;4.242;2023-02-15T09:39:43;14.60;99.90
19164;DHT22;9714;51.208;4.242;2023-02-15T09:42:35;14.20;99.90
19164;DHT22;9714;51.208;4.242;2023-02-15T09:45:20;14.30;99.90
19164;DHT22;9714;51.208;4.242;2023-02-15T09:48:09;14.60;99.90
19164;DHT22;9714;51.208;4.242;2023-02-15T09:50:44;14.70;99.90
19164;DHT22;9714;51.208;4.242;2023-02-15T09:53:41;14.80;99.90
19164;DHT22;9714;51.208;4.242;2023-02-15T09:56:16;14.40;99.90
19164;DHT22;9714;51.208;4.242;2023-02-15T09:58:55;13.80;99.90
19164;DHT22;9714;51.208;4.242;2023-02-15T10:01:30;14.20;99.90
19164;DHT22;9714;51.208;4.242;2023-02-15T10:04:19;14.50;99.90
19164;DHT22;9714;51.208;4.242;2023-02-15T10:06:57;15.40;99.90
19164;DHT22;9714;51.208;4.242;2023-02-15T10:09:39;15.40;99.90
19164;DHT22;9714;51.208;4.242;2023-02-15T10:12:22;15.40;99.90
19164;DHT22;9714;51.208;4.242;2023-02-15T10:15:25;15.90;99.90
19164;DHT22;9714;51.208;4.242;2023-02-15T10:18:16;16.10;99.90
19164;DHT22;9714;51.208;4.242;2023-02-15T10:20:57;16.30;99.90
19164;DHT22;9714;51.208;4.242;2023-02-15T10:24:00;15.80;99.90
19164;DHT22;9714;51.208;4.242;2023-02-15T10:30:02;16.20;99.90
19164;DHT22;9714;51.208;4.242;2023-02-15T10:32:51;15.80;99.90
19164;DHT22;9714;51.208;4.242;2023-02-15T10:35:25;16.30;99.90
19164;DHT22;9714;51.208;4.242;2023-02-15T10:38:15;17.00;99.90
19164;DHT22;9714;51.208;4.242;2023-02-15T10:40:55;17.50;99.90
19164;DHT22;9714;51.208;4.242;2023-02-15T10:43:41;17.20;99.90
19164;DHT22;9714;51.208;4.242;2023-02-15T10:46:23;18.00;98.90
19164;DHT22;9714;51.208;4.242;2023-02-15T10:52:15;18.10;98.90
19164;DHT22;9714;51.208;4.242;2023-02-15T10:54:49;17.90;97.70
19164;DHT22;9714;51.208;4.242;2023-02-15T10:57:26;18.20;97.80
19164;DHT22;9714;51.208;4.242;2023-02-15T11:00:05;18.20;98.10
19164;DHT22;9714;51.208;4.242;2023-02-15T11:02:45;19.40;97.10
19164;DHT22;9714;51.208;4.242;2023-02-15T11:05:27;20.10;94.30
19164;DHT22;9714;51.208;4.242;2023-02-15T11:08:03;19.40;94.00
19164;DHT22;9714;51.208;4.242;2023-02-15T11:10:35;19.40;93.90
19164;DHT22;9714;51.208;4.242;2023-02-15T11:13:10;20.40;92.30
19164;DHT22;9714;51.208;4.242;2023-02-15T11:15:41;20.50;91.90
19164;DHT22;9714;51.208;4.242;2023-02-15T11:18:13;20.80;90.80
19164;DHT22;9714;51.208;4.242;2023-02-15T11:20:49;21.30;89.40
19164;DHT22;9714;51.208;4.242;2023-02-15T11:23:21;20.90;89.30
19164;DHT22;9714;51.208;4.242;2023-02-15T11:25:55;19.80;89.70
19164;DHT22;9714;51.208;4.242;2023-02-15T11:28:27;19.50;91.00
19164;DHT22;9714;51.208;4.242;2023-02-15T11:30:58;20.00;90.60
19164;DHT22;9714;51.208;4.242;2023-02-15T11:33:30;20.10;89.50
19164;DHT22;9714;51.208;4.242;2023-02-15T11:36:03;20.10;89.80
19164;DHT22;9714;51.208;4.242;2023-02-15T11:38:32;20.00;89.80
19164;DHT22;9714;51.208;4.242;2023-02-15T11:41:03;20.30;87.70
19164;DHT22;9714;51.208;4.242;2023-02-15T11:43:36;19.90;88.90
19164;DHT22;9714;51.208;4.242;2023-02-15T11:46:05;19.60;89.50
19164;DHT22;9714;51.208;4.242;2023-02-15T11:48:32;19.50;88.50
19164;DHT22;9714;51.208;4.242;2023-02-15T11:51:02;19.50;88.90
19164;DHT22;9714;51.208;4.242;2023-02-15T11:53:33;19.10;89.50
19164;DHT22;9714;51.208;4.242;2023-02-15T11:56:02;18.10;90.10
19164;DHT22;9714;51.208;4.242;2023-02-15T11:58:36;16.90;91.90
19164;DHT22;9714;51.208;4.242;2023-02-15T12:01:13;16.60;93.70
19164;DHT22;9714;51.208;4.242;2023-02-15T12:03:46;16.80;93.00
19164;DHT22;9714;51.208;4.242;2023-02-15T12:06:22;16.40;93.90
19164;DHT22;9714;51.208;4.242;2023-02-15T12:08:55;18.00;93.30
19164;DHT22;9714;51.208;4.242;2023-02-15T12:11:27;18.40;91.30
19164;DHT22;9714;51.208;4.242;2023-02-15T12:13:57;18.60;91.30
19164;DHT22;9714;51.208;4.242;2023-02-15T12:16:25;19.30;90.60
19164;DHT22;9714;51.208;4.242;2023-02-15T12:18:56;20.20;89.30
19164;DHT22;9714;51.208;4.242;2023-02-15T12:21:28;20.40;86.80
19164;DHT22;9714;51.208;4.242;2023-02-15T12:24:00;19.30;89.10
19164;DHT22;9714;51.208;4.242;2023-02-15T12:26:30;18.90;90.00
19164;DHT22;9714;51.208;4.242;2023-02-15T12:29:01;19.40;90.00
19164;DHT22;9714;51.208;4.242;2023-02-15T12:31:37;19.50;89.40
19164;DHT22;9714;51.208;4.242;2023-02-15T12:34:11;19.80;88.00
19164;DHT22;9714;51.208;4.242;2023-02-15T12:36:43;19.80;88.00
19164;DHT22;9714;51.208;4.242;2023-02-15T12:39:21;20.30;86.50
19164;DHT22;9714;51.208;4.242;2023-02-15T12:42:00;20.30;85.10
19164;DHT22;9714;51.208;4.242;2023-02-15T12:44:31;20.00;85.30
19164;DHT22;9714;51.208;4.242;2023-02-15T12:47:01;20.20;85.30
19164;DHT22;9714;51.208;4.242;2023-02-15T12:49:30;19.90;85.90
19164;DHT22;9714;51.208;4.242;2023-02-15T12:52:02;20.40;85.00
19164;DHT22;9714;51.208;4.242;2023-02-15T12:54:35;20.40;84.00
19164;DHT22;9714;51.208;4.242;2023-02-15T12:57:29;20.60;85.00
19164;DHT22;9714;51.208;4.242;2023-02-15T12:59:58;20.60;83.00
19164;DHT22;9714;51.208;4.242;2023-02-15T13:02:29;20.60;83.00
19164;DHT22;9714;51.208;4.242;2023-02-15T13:05:05;19.50;84.50
19164;DHT22;9714;51.208;4.242;2023-02-15T13:07:45;18.70;87.00
19164;DHT22;9714;51.208;4.242;2023-02-15T13:10:21;18.70;87.40
19164;DHT22;9714;51.208;4.242;2023-02-15T13:12:50;18.60;87.70
19164;DHT22;9714;51.208;4.242;2023-02-15T13:15:31;18.50;88.70
19164;DHT22;9714;51.208;4.242;2023-02-15T13:18:01;17.90;90.00
19164;DHT22;9714;51.208;4.242;2023-02-15T13:20:30;17.30;90.60
19164;DHT22;9714;51.208;4.242;2023-02-15T13:23:02;16.90;91.50
19164;DHT22;9714;51.208;4.242;2023-02-15T13:25:38;16.60;92.00
19164;DHT22;9714;51.208;4.242;2023-02-15T13:28:13;16.50;92.60
19164;DHT22;9714;51.208;4.242;2023-02-15T13:30:44;16.40;93.00
19164;DHT22;9714;51.208;4.242;2023-02-15T13:33:16;16.60;93.10
19164;DHT22;9714;51.208;4.242;2023-02-15T13:35:49;16.70;93.40
19164;DHT22;9714;51.208;4.242;2023-02-15T13:38:31;16.80;93.10
19164;DHT22;9714;51.208;4.242;2023-02-15T13:41:06;17.40;93.00
19164;DHT22;9714;51.208;4.242;2023-02-15T13:43:44;18.20;91.80
19164;DHT22;9714;51.208;4.242;2023-02-15T13:46:21;18.50;91.40
19164;DHT22;9714;51.208;4.242;2023-02-15T13:49:07;18.30;91.30
19164;DHT22;9714;51.208;4.242;2023-02-15T13:51:48;18.60;91.50
19164;DHT22;9714;51.208;4.242;2023-02-15T13:57:52;19.30;91.00
19164;DHT22;9714;51.208;4.242;2023-02-15T14:00:27;20.20;90.00
19164;DHT22;9714;51.208;4.242;2023-02-15T14:03:22;20.60;88.00
19164;DHT22;9714;51.208;4.242;2023-02-15T14:06:27;21.20;86.60
19164;DHT22;9714;51.208;4.242;2023-02-15T14:09:22;21.50;83.80
19164;DHT22;9714;51.208;4.242;2023-02-15T14:12:09;21.00;84.30
19164;DHT22;9714;51.208;4.242;2023-02-15T14:15:12;20.50;85.00
19164;DHT22;9714;51.208;4.242;2023-02-15T14:17:55;20.50;86.00
19164;DHT22;9714;51.208;4.242;2023-02-15T14:20:58;20.30;85.40
19164;DHT22;9714;51.208;4.242;2023-02-15T14:23:52;19.90;86.90
19164;DHT22;9714;51.208;4.242;2023-02-15T14:26:32;20.70;86.20
19164;DHT22;9714;51.208;4.242;2023-02-15T14:29:13;20.80;84.20
19164;DHT22;9714;51.208;4.242;2023-02-15T14:31:58;20.70;84.60
19164;DHT22;9714;51.208;4.242;2023-02-15T14:34:44;20.30;85.60
19164;DHT22;9714;51.208;4.242;2023-02-15T14:37:42;20.30;86.30
19164;DHT22;9714;51.208;4.242;2023-02-15T14:40:32;20.60;86.00
19164;DHT22;9714;51.208;4.242;2023-02-15T14:43:59;20.70;85.00
19164;DHT22;9714;51.208;4.242;2023-02-15T14:50:42;20.70;84.60
19164;DHT22;9714;51.208;4.242;2023-02-15T14:53:34;20.60;83.90
19164;DHT22;9714;51.208;4.242;2023-02-15T14:56:24;20.20;85.30
19164;DHT22;9714;51.208;4.242;2023-02-15T14:59:14;19.60;86.30
19164;DHT22;9714;51.208;4.242;2023-02-15T15:01:52;19.10;88.10
19164;DHT22;9714;51.208;4.242;2023-02-15T15:04:27;19.40;88.00
19164;DHT22;9714;51.208;4.242;2023-02-15T15:07:04;19.00;88.00
19164;DHT22;9714;51.208;4.242;2023-02-15T15:09:36;18.60;89.20
19164;DHT22;9714;51.208;4.242;2023-02-15T15:12:37;18.50;89.70
19164;DHT22;9714;51.208;4.242;2023-02-15T15:15:06;18.50;90.10
19164;DHT22;9714;51.208;4.242;2023-02-15T15:17:53;18.20;90.60
19164;DHT22;9714;51.208;4.242;2023-02-15T15:20:45;18.30;90.50
19164;DHT22;9714;51.208;4.242;2023-02-15T15:26:30;18.00;90.90
19164;DHT22;9714;51.208;4.242;2023-02-15T15:29:03;17.90;90.90
19164;DHT22;9714;51.208;4.242;2023-02-15T15:31:39;17.30;91.60
19164;DHT22;9714;51.208;4.242;2023-02-15T15:34:51;17.10;92.00
19164;DHT22;9714;51.208;4.242;2023-02-15T15:38:32;16.90;92.30
19164;DHT22;9714;51.208;4.242;2023-02-15T16:22:32;14.80;99.20
19164;DHT22;9714;51.208;4.242;2023-02-15T16:25:22;15.00;99.70
19164;DHT22;9714;51.208;4.242;2023-02-15T16:27:55;14.60;99.70
19164;DHT22;9714;51.208;4.242;2023-02-15T16:30:29;14.50;99.90
19164;DHT22;9714;51.208;4.242;2023-02-15T16:33:07;14.40;99.90
19164;DHT22;9714;51.208;4.242;2023-02-15T16:35:37;14.40;99.90
19164;DHT22;9714;51.208;4.242;2023-02-15T16:38:24;14.10;99.90
19164;DHT22;9714;51.208;4.242;2023-02-15T16:41:37;13.90;99.90
19164;DHT22;9714;51.208;4.242;2023-02-15T17:28:49;12.50;99.90
19164;DHT22;9714;51.208;4.242;2023-02-15T17:31:25;12.80;99.90
19164;DHT22;9714;51.208;4.242;2023-02-15T17:37:24;12.50;99.90
19164;DHT22;9714;51.208;4.242;2023-02-15T17:40:00;12.70;99.90
19164;DHT22;9714;51.208;4.242;2023-02-15T17:42:37;12.50;99.90
19164;DHT22;9714;51.208;4.242;2023-02-15T17:45:09;12.40;99.90
19164;DHT22;9714;51.208;4.242;2023-02-15T17:47:39;12.50;99.90
19164;DHT22;9714;51.208;4.242;2023-02-15T17:53:19;12.30;99.90
19164;DHT22;9714;51.208;4.242;2023-02-15T17:55:46;12.20;99.90
19164;DHT22;9714;51.208;4.242;2023-02-15T17:58:13;12.30;99.90
19164;DHT22;9714;51.208;4.242;2023-02-15T18:00:47;12.20;99.90
19164;DHT22;9714;51.208;4.242;2023-02-15T18:03:40;12.20;99.90
19164;DHT22;9714;51.208;4.242;2023-02-15T18:06:26;12.40;99.90
19164;DHT22;9714;51.208;4.242;2023-02-15T18:09:13;12.60;99.90
19164;DHT22;9714;51.208;4.242;2023-02-15T18:11:59;12.50;99.90
19164;DHT22;9714;51.208;4.242;2023-02-15T18:14:27;12.20;99.90
19164;DHT22;9714;51.208;4.242;2023-02-15T18:16:57;12.40;99.90
19164;DHT22;9714;51.208;4.242;2023-02-15T18:19:25;12.00;99.90
19164;DHT22;9714;51.208;4.242;2023-02-15T18:21:54;12.00;99.90
19164;DHT22;9714;51.208;4.242;2023-02-15T18:24:23;12.30;99.90
19164;DHT22;9714;51.208;4.242;2023-02-15T18:26:56;12.00;99.90
19164;DHT22;9714;51.208;4.242;2023-02-15T18:29:23;12.00;99.90
19164;DHT22;9714;51.208;4.242;2023-02-15T18:31:54;12.00;99.90
19164;DHT22;9714;51.208;4.242;2023-02-15T18:34:28;12.10;99.90
19164;DHT22;9714;51.208;4.242;2023-02-15T18:36:58;11.80;99.90